sensor_id;sensor_type;location;lat;lon;timestamp;pressure;altitude;pressure_sealevel;temperature;humidity
46211;BME280;52144;48.040;-1.594;2022-09-09T00:02:21;100595.28;;;17.62;100.00
46211;BME280;52144;48.040;-1.594;2022-09-09T00:04:58;100596.16;;;17.63;100.00
46211;BME280;52144;48.040;-1.594;2022-09-09T00:07:40;100583.75;;;17.60;100.00
46211;BME280;52144;48.040;-1.594;2022-09-09T00:10:17;100586.47;;;17.60;100.00
46211;BME280;52144;48.040;-1.594;2022-09-09T00:12:54;100589.81;;;17.75;100.00
46211;BME280;52144;48.040;-1.594;2022-09-09T00:15:28;100583.88;;;17.83;100.00
46211;BME280;52144;48.040;-1.594;2022-09-09T00:18:07;100585.88;;;17.68;100.00
46211;BME280;52144;48.040;-1.594;2022-09-09T00:20:44;100589.94;;;17.74;100.00
46211;BME280;52144;48.040;-1.594;2022-09-09T00:23:19;100592.69;;;17.85;100.00
46211;BME280;52144;48.040;-1.594;2022-09-09T00:25:59;100588.59;;;17.79;100.00
46211;BME280;52144;48.040;-1.594;2022-09-09T00:28:34;100579.63;;;17.68;100.00
46211;BME280;52144;48.040;-1.594;2022-09-09T00:31:11;100586.81;;;17.91;100.00
46211;BME280;52144;48.040;-1.594;2022-09-09T00:33:43;100587.50;;;17.82;100.00
46211;BME280;52144;48.040;-1.594;2022-09-09T00:36:13;100586.72;;;17.69;100.00
46211;BME280;52144;48.040;-1.594;2022-09-09T00:38:45;100586.28;;;17.75;100.00
46211;BME280;52144;48.040;-1.594;2022-09-09T00:41:20;100581.91;;;17.96;100.00
46211;BME280;52144;48.040;-1.594;2022-09-09T00:43:56;100575.97;;;17.80;100.00
46211;BME280;52144;48.040;-1.594;2022-09-09T00:49:35;100563.25;;;17.82;100.00
46211;BME280;52144;48.040;-1.594;2022-09-09T00:52:21;100564.19;;;17.70;100.00
46211;BME280;52144;48.040;-1.594;2022-09-09T00:54:58;100565.91;;;17.59;100.00
46211;BME280;52144;48.040;-1.594;2022-09-09T00:57:32;100570.16;;;17.51;100.00
46211;BME280;52144;48.040;-1.594;2022-09-09T01:00:21;100570.97;;;17.29;100.00
46211;BME280;52144;48.040;-1.594;2022-09-09T01:03:06;100575.50;;;17.75;100.00
46211;BME280;52144;48.040;-1.594;2022-09-09T01:05:46;100569.81;;;17.55;100.00
46211;BME280;52144;48.040;-1.594;2022-09-09T01:08:29;100569.16;;;17.40;100.00
46211;BME280;52144;48.040;-1.594;2022-09-09T01:11:01;100563.09;;;17.25;100.00
46211;BME280;52144;48.040;-1.594;2022-09-09T01:13:32;100571.59;;;17.32;100.00
46211;BME280;52144;48.040;-1.594;2022-09-09T01:16:03;100567.06;;;17.33;100.00
46211;BME280;52144;48.040;-1.594;2022-09-09T01:18:36;100571.63;;;17.08;100.00
46211;BME280;52144;48.040;-1.594;2022-09-09T01:21:15;100559.19;;;17.30;100.00
46211;BME280;52144;48.040;-1.594;2022-09-09T01:24:08;100560.06;;;17.77;100.00
46211;BME280;52144;48.040;-1.594;2022-09-09T01:26:44;100564.63;;;17.52;100.00
46211;BME280;52144;48.040;-1.594;2022-09-09T01:29:14;100563.34;;;17.22;100.00
46211;BME280;52144;48.040;-1.594;2022-09-09T01:31:53;100560.63;;;17.47;100.00
46211;BME280;52144;48.040;-1.594;2022-09-09T01:34:22;100558.03;;;17.45;100.00
46211;BME280;52144;48.040;-1.594;2022-09-09T01:36:55;100563.59;;;17.77;100.00
46211;BME280;52144;48.040;-1.594;2022-09-09T01:39:26;100563.44;;;17.56;100.00
46211;BME280;52144;48.040;-1.594;2022-09-09T01:41:56;100567.44;;;17.86;100.00
46211;BME280;52144;48.040;-1.594;2022-09-09T01:44:25;100562.34;;;17.59;100.00
46211;BME280;52144;48.040;-1.594;2022-09-09T01:46:55;100559.50;;;17.49;100.00
46211;BME280;52144;48.040;-1.594;2022-09-09T01:49:23;100568.00;;;17.67;100.00
46211;BME280;52144;48.040;-1.594;2022-09-09T01:51:53;100564.53;;;17.54;100.00
46211;BME280;52144;48.040;-1.594;2022-09-09T01:54:24;100565.63;;;17.62;100.00
46211;BME280;52144;48.040;-1.594;2022-09-09T01:57:03;100568.81;;;17.45;100.00
46211;BME280;52144;48.040;-1.594;2022-09-09T01:59:47;100568.38;;;17.74;100.00
46211;BME280;52144;48.040;-1.594;2022-09-09T02:02:18;100561.34;;;17.49;100.00
46211;BME280;52144;48.040;-1.594;2022-09-09T02:04:49;100567.00;;;17.57;100.00
46211;BME280;52144;48.040;-1.594;2022-09-09T02:07:36;100572.25;;;17.58;100.00
46211;BME280;52144;48.040;-1.594;2022-09-09T02:10:10;100579.38;;;17.71;100.00
46211;BME280;52144;48.040;-1.594;2022-09-09T02:12:45;100581.53;;;17.43;100.00
46211;BME280;52144;48.040;-1.594;2022-09-09T02:15:18;100585.06;;;17.08;100.00
46211;BME280;52144;48.040;-1.594;2022-09-09T02:17:50;100587.41;;;17.48;100.00
46211;BME280;52144;48.040;-1.594;2022-09-09T02:20:20;100593.13;;;17.32;100.00
46211;BME280;52144;48.040;-1.594;2022-09-09T02:22:50;100592.44;;;17.17;100.00
46211;BME280;52144;48.040;-1.594;2022-09-09T02:25:22;100591.41;;;17.07;100.00
46211;BME280;52144;48.040;-1.594;2022-09-09T02:27:53;100582.69;;;17.28;100.00
46211;BME280;52144;48.040;-1.594;2022-09-09T02:30:24;100590.09;;;17.13;100.00
46211;BME280;52144;48.040;-1.594;2022-09-09T02:32:54;100588.06;;;17.28;100.00
46211;BME280;52144;48.040;-1.594;2022-09-09T02:35:25;100578.78;;;17.32;100.00
46211;BME280;52144;48.040;-1.594;2022-09-09T02:37:57;100583.50;;;17.17;100.00
46211;BME280;52144;48.040;-1.594;2022-09-09T02:40:27;100587.84;;;17.31;100.00
46211;BME280;52144;48.040;-1.594;2022-09-09T02:42:56;100583.56;;;17.28;100.00
46211;BME280;52144;48.040;-1.594;2022-09-09T02:45:32;100583.22;;;17.33;100.00
46211;BME280;52144;48.040;-1.594;2022-09-09T02:48:10;100588.22;;;17.73;100.00
46211;BME280;52144;48.040;-1.594;2022-09-09T02:50:50;100581.47;;;17.20;100.00
46211;BME280;52144;48.040;-1.594;2022-09-09T02:53:26;100593.25;;;17.42;100.00
46211;BME280;52144;48.040;-1.594;2022-09-09T02:56:01;100589.19;;;17.72;100.00
46211;BME280;52144;48.040;-1.594;2022-09-09T02:58:33;100593.81;;;17.58;100.00
46211;BME280;52144;48.040;-1.594;2022-09-09T03:01:01;100598.13;;;17.61;100.00
46211;BME280;52144;48.040;-1.594;2022-09-09T03:03:30;100596.69;;;17.33;100.00
46211;BME280;52144;48.040;-1.594;2022-09-09T03:05:59;100601.34;;;17.42;100.00
46211;BME280;52144;48.040;-1.594;2022-09-09T03:08:28;100593.03;;;17.45;100.00
46211;BME280;52144;48.040;-1.594;2022-09-09T03:10:58;100591.88;;;17.25;100.00
46211;BME280;52144;48.040;-1.594;2022-09-09T03:13:28;100597.16;;;17.73;100.00
46211;BME280;52144;48.040;-1.594;2022-09-09T03:15:58;100597.72;;;17.54;100.00
46211;BME280;52144;48.040;-1.594;2022-09-09T03:18:26;100600.13;;;17.81;100.00
46211;BME280;52144;48.040;-1.594;2022-09-09T03:20:55;100597.09;;;17.86;100.00
46211;BME280;52144;48.040;-1.594;2022-09-09T03:23:26;100608.13;;;17.83;100.00
46211;BME280;52144;48.040;-1.594;2022-09-09T03:25:54;100599.91;;;17.49;100.00
46211;BME280;52144;48.040;-1.594;2022-09-09T03:28:25;100605.13;;;17.28;100.00
46211;BME280;52144;48.040;-1.594;2022-09-09T03:31:00;100611.00;;;17.09;100.00
46211;BME280;52144;48.040;-1.594;2022-09-09T03:33:28;100602.97;;;17.56;100.00
46211;BME280;52144;48.040;-1.594;2022-09-09T03:35:57;100608.69;;;17.40;100.00
46211;BME280;52144;48.040;-1.594;2022-09-09T03:38:26;100604.44;;;17.49;100.00
46211;BME280;52144;48.040;-1.594;2022-09-09T03:40:56;100607.72;;;17.41;100.00
46211;BME280;52144;48.040;-1.594;2022-09-09T03:43:26;100598.63;;;17.31;100.00
46211;BME280;52144;48.040;-1.594;2022-09-09T03:45:55;100597.91;;;17.75;100.00
46211;BME280;52144;48.040;-1.594;2022-09-09T03:48:26;100600.28;;;17.56;100.00
46211;BME280;52144;48.040;-1.594;2022-09-09T03:50:55;100604.56;;;17.47;100.00
46211;BME280;52144;48.040;-1.594;2022-09-09T03:53:25;100614.41;;;17.71;100.00
46211;BME280;52144;48.040;-1.594;2022-09-09T03:55:54;100618.69;;;17.62;100.00
46211;BME280;52144;48.040;-1.594;2022-09-09T03:58:23;100621.38;;;17.62;100.00
46211;BME280;52144;48.040;-1.594;2022-09-09T04:00:54;100621.56;;;17.48;100.00
46211;BME280;52144;48.040;-1.594;2022-09-09T04:03:23;100622.81;;;17.90;100.00
46211;BME280;52144;48.040;-1.594;2022-09-09T04:05:57;100624.03;;;17.86;100.00
46211;BME280;52144;48.040;-1.594;2022-09-09T04:08:26;100626.66;;;17.63;100.00
46211;BME280;52144;48.040;-1.594;2022-09-09T04:10:55;100620.25;;;17.64;100.00
46211;BME280;52144;48.040;-1.594;2022-09-09T04:13:25;100629.72;;;17.35;100.00
46211;BME280;52144;48.040;-1.594;2022-09-09T04:15:55;100626.47;;;17.42;100.00
46211;BME280;52144;48.040;-1.594;2022-09-09T04:18:25;100627.72;;;17.25;100.00
46211;BME280;52144;48.040;-1.594;2022-09-09T04:20:56;100626.78;;;17.38;100.00
46211;BME280;52144;48.040;-1.594;2022-09-09T04:23:26;100624.25;;;17.36;100.00
46211;BME280;52144;48.040;-1.594;2022-09-09T04:25:57;100626.69;;;17.75;100.00
46211;BME280;52144;48.040;-1.594;2022-09-09T04:28:28;100621.81;;;17.44;100.00
46211;BME280;52144;48.040;-1.594;2022-09-09T04:30:56;100630.13;;;17.41;100.00
46211;BME280;52144;48.040;-1.594;2022-09-09T04:33:25;100628.34;;;17.53;100.00
46211;BME280;52144;48.040;-1.594;2022-09-09T04:35:55;100630.69;;;17.34;100.00
46211;BME280;52144;48.040;-1.594;2022-09-09T04:38:23;100634.47;;;17.55;100.00
46211;BME280;52144;48.040;-1.594;2022-09-09T04:40:52;100625.44;;;17.68;100.00
46211;BME280;52144;48.040;-1.594;2022-09-09T04:43:21;100632.72;;;17.54;100.00
46211;BME280;52144;48.040;-1.594;2022-09-09T04:45:52;100626.38;;;17.55;100.00
46211;BME280;52144;48.040;-1.594;2022-09-09T04:48:21;100625.94;;;17.73;100.00
46211;BME280;52144;48.040;-1.594;2022-09-09T04:50:59;100635.28;;;17.44;100.00
46211;BME280;52144;48.040;-1.594;2022-09-09T04:53:27;100626.97;;;17.48;100.00
46211;BME280;52144;48.040;-1.594;2022-09-09T04:56:01;100626.91;;;17.72;100.00
46211;BME280;52144;48.040;-1.594;2022-09-09T04:58:31;100635.41;;;17.54;100.00
46211;BME280;52144;48.040;-1.594;2022-09-09T05:01:04;100634.94;;;17.25;100.00
46211;BME280;52144;48.040;-1.594;2022-09-09T05:03:33;100640.31;;;17.49;100.00
46211;BME280;52144;48.040;-1.594;2022-09-09T05:06:07;100635.47;;;17.65;100.00
46211;BME280;52144;48.040;-1.594;2022-09-09T05:08:37;100631.50;;;17.47;100.00
46211;BME280;52144;48.040;-1.594;2022-09-09T05:11:13;100635.88;;;17.48;100.00
46211;BME280;52144;48.040;-1.594;2022-09-09T05:13:42;100635.13;;;17.35;100.00
46211;BME280;52144;48.040;-1.594;2022-09-09T05:16:11;100637.28;;;17.30;100.00
46211;BME280;52144;48.040;-1.594;2022-09-09T05:18:40;100636.03;;;17.47;100.00
46211;BME280;52144;48.040;-1.594;2022-09-09T05:21:10;100636.09;;;17.34;100.00
46211;BME280;52144;48.040;-1.594;2022-09-09T05:23:39;100632.25;;;17.49;100.00
46211;BME280;52144;48.040;-1.594;2022-09-09T05:26:11;100636.50;;;17.40;100.00
46211;BME280;52144;48.040;-1.594;2022-09-09T05:28:43;100634.53;;;17.42;100.00
46211;BME280;52144;48.040;-1.594;2022-09-09T05:31:13;100648.50;;;17.23;100.00
46211;BME280;52144;48.040;-1.594;2022-09-09T05:33:43;100647.22;;;17.29;100.00
46211;BME280;52144;48.040;-1.594;2022-09-09T05:36:15;100649.66;;;16.84;100.00
46211;BME280;52144;48.040;-1.594;2022-09-09T05:38:44;100652.13;;;17.11;100.00
46211;BME280;52144;48.040;-1.594;2022-09-09T05:41:13;100656.44;;;17.14;100.00
46211;BME280;52144;48.040;-1.594;2022-09-09T05:43:42;100668.22;;;17.00;100.00
46211;BME280;52144;48.040;-1.594;2022-09-09T05:46:15;100666.00;;;16.81;100.00
46211;BME280;52144;48.040;-1.594;2022-09-09T05:48:45;100667.25;;;17.01;100.00
46211;BME280;52144;48.040;-1.594;2022-09-09T05:51:16;100660.53;;;17.55;100.00
46211;BME280;52144;48.040;-1.594;2022-09-09T05:53:45;100670.53;;;17.41;100.00
46211;BME280;52144;48.040;-1.594;2022-09-09T05:56:15;100663.84;;;17.58;100.00
46211;BME280;52144;48.040;-1.594;2022-09-09T05:58:45;100663.66;;;17.37;100.00
46211;BME280;52144;48.040;-1.594;2022-09-09T06:01:17;100668.22;;;17.00;100.00
46211;BME280;52144;48.040;-1.594;2022-09-09T06:03:47;100658.53;;;17.21;100.00
46211;BME280;52144;48.040;-1.594;2022-09-09T06:06:19;100669.28;;;17.10;100.00
46211;BME280;52144;48.040;-1.594;2022-09-09T06:08:50;100669.09;;;17.24;100.00
46211;BME280;52144;48.040;-1.594;2022-09-09T06:11:21;100668.22;;;17.48;100.00
46211;BME280;52144;48.040;-1.594;2022-09-09T06:13:50;100672.56;;;17.62;100.00
46211;BME280;52144;48.040;-1.594;2022-09-09T06:16:22;100670.88;;;17.72;100.00
46211;BME280;52144;48.040;-1.594;2022-09-09T06:18:51;100671.47;;;17.64;100.00
46211;BME280;52144;48.040;-1.594;2022-09-09T06:21:23;100682.84;;;17.33;100.00
46211;BME280;52144;48.040;-1.594;2022-09-09T06:23:52;100678.13;;;17.23;100.00
46211;BME280;52144;48.040;-1.594;2022-09-09T06:26:27;100681.25;;;17.30;100.00
46211;BME280;52144;48.040;-1.594;2022-09-09T06:28:57;100683.50;;;17.36;100.00
46211;BME280;52144;48.040;-1.594;2022-09-09T06:31:28;100683.44;;;17.60;100.00
46211;BME280;52144;48.040;-1.594;2022-09-09T06:33:58;100686.28;;;17.35;100.00
46211;BME280;52144;48.040;-1.594;2022-09-09T06:36:30;100682.22;;;17.64;100.00
46211;BME280;52144;48.040;-1.594;2022-09-09T06:38:59;100696.91;;;17.60;100.00
46211;BME280;52144;48.040;-1.594;2022-09-09T06:41:29;100694.81;;;17.53;100.00
46211;BME280;52144;48.040;-1.594;2022-09-09T06:43:57;100702.38;;;17.72;100.00
46211;BME280;52144;48.040;-1.594;2022-09-09T06:46:27;100703.75;;;17.53;100.00
46211;BME280;52144;48.040;-1.594;2022-09-09T06:48:57;100711.00;;;17.53;100.00
46211;BME280;52144;48.040;-1.594;2022-09-09T06:51:29;100705.25;;;17.33;100.00
46211;BME280;52144;48.040;-1.594;2022-09-09T06:53:59;100709.59;;;17.71;100.00
46211;BME280;52144;48.040;-1.594;2022-09-09T06:56:30;100712.41;;;17.70;100.00
46211;BME280;52144;48.040;-1.594;2022-09-09T06:59:00;100713.88;;;17.74;100.00
46211;BME280;52144;48.040;-1.594;2022-09-09T07:01:32;100721.72;;;18.01;100.00
46211;BME280;52144;48.040;-1.594;2022-09-09T07:04:01;100727.06;;;17.65;100.00
46211;BME280;52144;48.040;-1.594;2022-09-09T07:06:33;100725.94;;;17.81;100.00
46211;BME280;52144;48.040;-1.594;2022-09-09T07:09:04;100722.81;;;17.74;100.00
46211;BME280;52144;48.040;-1.594;2022-09-09T07:11:37;100723.03;;;17.84;100.00
46211;BME280;52144;48.040;-1.594;2022-09-09T07:14:06;100727.78;;;18.16;100.00
46211;BME280;52144;48.040;-1.594;2022-09-09T07:16:34;100722.19;;;17.95;100.00
46211;BME280;52144;48.040;-1.594;2022-09-09T07:19:04;100738.09;;;18.33;100.00
46211;BME280;52144;48.040;-1.594;2022-09-09T07:21:34;100721.44;;;18.39;100.00
46211;BME280;52144;48.040;-1.594;2022-09-09T07:24:03;100729.81;;;18.59;100.00
46211;BME280;52144;48.040;-1.594;2022-09-09T07:26:34;100725.84;;;18.29;100.00
46211;BME280;52144;48.040;-1.594;2022-09-09T07:29:03;100734.06;;;18.39;100.00
46211;BME280;52144;48.040;-1.594;2022-09-09T07:31:33;100731.34;;;18.28;100.00
46211;BME280;52144;48.040;-1.594;2022-09-09T07:34:04;100737.34;;;18.31;100.00
46211;BME280;52144;48.040;-1.594;2022-09-09T07:36:35;100733.50;;;18.80;100.00
46211;BME280;52144;48.040;-1.594;2022-09-09T07:39:06;100739.56;;;18.37;100.00
46211;BME280;52144;48.040;-1.594;2022-09-09T07:41:37;100746.97;;;18.69;100.00
46211;BME280;52144;48.040;-1.594;2022-09-09T07:44:07;100741.06;;;18.64;100.00
46211;BME280;52144;48.040;-1.594;2022-09-09T07:46:38;100744.13;;;18.59;100.00
46211;BME280;52144;48.040;-1.594;2022-09-09T07:49:08;100741.59;;;18.92;100.00
46211;BME280;52144;48.040;-1.594;2022-09-09T07:51:40;100744.78;;;18.97;100.00
46211;BME280;52144;48.040;-1.594;2022-09-09T07:54:11;100757.31;;;18.87;100.00
46211;BME280;52144;48.040;-1.594;2022-09-09T07:56:40;100755.31;;;18.55;100.00
46211;BME280;52144;48.040;-1.594;2022-09-09T07:59:09;100761.66;;;18.54;100.00
46211;BME280;52144;48.040;-1.594;2022-09-09T08:01:40;100770.78;;;18.75;100.00
46211;BME280;52144;48.040;-1.594;2022-09-09T08:04:11;100776.84;;;18.43;100.00
46211;BME280;52144;48.040;-1.594;2022-09-09T08:06:45;100774.16;;;18.32;100.00
46211;BME280;52144;48.040;-1.594;2022-09-09T08:09:14;100782.69;;;18.73;100.00
46211;BME280;52144;48.040;-1.594;2022-09-09T08:11:43;100771.16;;;18.71;99.95
46211;BME280;52144;48.040;-1.594;2022-09-09T08:14:12;100771.03;;;18.95;98.05
46211;BME280;52144;48.040;-1.594;2022-09-09T08:16:43;100773.44;;;18.64;99.73
46211;BME280;52144;48.040;-1.594;2022-09-09T08:19:12;100773.13;;;18.80;98.21
46211;BME280;52144;48.040;-1.594;2022-09-09T08:21:44;100770.81;;;19.09;95.88
46211;BME280;52144;48.040;-1.594;2022-09-09T08:24:13;100786.91;;;19.65;94.84
46211;BME280;52144;48.040;-1.594;2022-09-09T08:26:43;100780.03;;;20.05;94.08
46211;BME280;52144;48.040;-1.594;2022-09-09T08:29:13;100780.69;;;19.42;94.41
46211;BME280;52144;48.040;-1.594;2022-09-09T08:31:43;100780.03;;;19.61;93.64
46211;BME280;52144;48.040;-1.594;2022-09-09T08:34:11;100788.56;;;19.34;94.20
46211;BME280;52144;48.040;-1.594;2022-09-09T08:36:41;100787.50;;;19.69;92.25
46211;BME280;52144;48.040;-1.594;2022-09-09T08:39:13;100790.47;;;19.77;91.52
46211;BME280;52144;48.040;-1.594;2022-09-09T08:41:56;100786.91;;;19.77;92.02
46211;BME280;52144;48.040;-1.594;2022-09-09T08:47:29;100793.16;;;20.10;88.73
46211;BME280;52144;48.040;-1.594;2022-09-09T08:50:16;100807.84;;;19.52;91.08
46211;BME280;52144;48.040;-1.594;2022-09-09T08:52:53;100800.69;;;19.62;90.94
46211;BME280;52144;48.040;-1.594;2022-09-09T08:55:30;100801.13;;;19.24;90.97
46211;BME280;52144;48.040;-1.594;2022-09-09T08:58:09;100791.44;;;19.65;89.46
46211;BME280;52144;48.040;-1.594;2022-09-09T09:00:55;100793.72;;;19.92;90.37
46211;BME280;52144;48.040;-1.594;2022-09-09T09:03:34;100789.09;;;20.36;87.77
46211;BME280;52144;48.040;-1.594;2022-09-09T09:06:14;100806.84;;;19.53;90.10
46211;BME280;52144;48.040;-1.594;2022-09-09T09:08:46;100811.41;;;19.96;89.78
46211;BME280;52144;48.040;-1.594;2022-09-09T09:11:21;100802.22;;;20.20;88.76
46211;BME280;52144;48.040;-1.594;2022-09-09T09:13:53;100811.66;;;20.68;86.68
46211;BME280;52144;48.040;-1.594;2022-09-09T09:16:28;100819.41;;;20.72;85.96
46211;BME280;52144;48.040;-1.594;2022-09-09T09:18:59;100812.69;;;20.55;86.56
46211;BME280;52144;48.040;-1.594;2022-09-09T09:21:35;100816.09;;;20.48;87.13
46211;BME280;52144;48.040;-1.594;2022-09-09T09:24:10;100814.13;;;20.50;87.61
46211;BME280;52144;48.040;-1.594;2022-09-09T09:26:49;100814.69;;;20.32;88.23
46211;BME280;52144;48.040;-1.594;2022-09-09T09:29:18;100821.69;;;20.35;88.04
46211;BME280;52144;48.040;-1.594;2022-09-09T09:31:51;100826.56;;;20.41;88.24
46211;BME280;52144;48.040;-1.594;2022-09-09T09:34:21;100824.41;;;20.02;88.41
46211;BME280;52144;48.040;-1.594;2022-09-09T09:36:54;100825.44;;;19.90;88.44
46211;BME280;52144;48.040;-1.594;2022-09-09T09:39:24;100833.94;;;20.18;87.82
46211;BME280;52144;48.040;-1.594;2022-09-09T09:42:16;100826.44;;;20.42;85.27
46211;BME280;52144;48.040;-1.594;2022-09-09T09:44:49;100825.13;;;20.58;85.56
46211;BME280;52144;48.040;-1.594;2022-09-09T09:47:19;100829.91;;;20.87;84.19
46211;BME280;52144;48.040;-1.594;2022-09-09T09:49:52;100826.09;;;20.57;85.14
46211;BME280;52144;48.040;-1.594;2022-09-09T09:52:23;100840.16;;;20.62;84.45
46211;BME280;52144;48.040;-1.594;2022-09-09T09:54:52;100838.09;;;20.22;86.95
46211;BME280;52144;48.040;-1.594;2022-09-09T09:57:26;100839.38;;;20.39;85.49
46211;BME280;52144;48.040;-1.594;2022-09-09T10:00:04;100842.13;;;20.60;85.37
46211;BME280;52144;48.040;-1.594;2022-09-09T10:02:38;100846.28;;;20.85;83.54
46211;BME280;52144;48.040;-1.594;2022-09-09T10:05:15;100841.03;;;21.24;82.05
46211;BME280;52144;48.040;-1.594;2022-09-09T10:08:01;100850.00;;;21.15;82.81
46211;BME280;52144;48.040;-1.594;2022-09-09T10:10:39;100843.88;;;20.50;84.29
46211;BME280;52144;48.040;-1.594;2022-09-09T10:13:20;100846.75;;;20.37;86.25
46211;BME280;52144;48.040;-1.594;2022-09-09T10:16:01;100849.13;;;20.62;85.61
46211;BME280;52144;48.040;-1.594;2022-09-09T10:18:42;100853.53;;;20.31;85.65
46211;BME280;52144;48.040;-1.594;2022-09-09T10:21:24;100852.13;;;20.90;85.47
46211;BME280;52144;48.040;-1.594;2022-09-09T10:24:12;100855.59;;;20.71;84.98
46211;BME280;52144;48.040;-1.594;2022-09-09T10:26:50;100858.47;;;20.79;84.63
46211;BME280;52144;48.040;-1.594;2022-09-09T10:29:34;100856.63;;;21.32;83.14
46211;BME280;52144;48.040;-1.594;2022-09-09T10:32:25;100858.34;;;20.81;84.93
46211;BME280;52144;48.040;-1.594;2022-09-09T10:35:02;100852.31;;;21.60;80.31
46211;BME280;52144;48.040;-1.594;2022-09-09T10:37:41;100856.09;;;21.07;81.95
46211;BME280;52144;48.040;-1.594;2022-09-09T10:40:21;100855.53;;;21.13;82.73
46211;BME280;52144;48.040;-1.594;2022-09-09T10:42:55;100857.22;;;21.04;83.59
46211;BME280;52144;48.040;-1.594;2022-09-09T10:45:33;100859.22;;;20.28;83.73
46211;BME280;52144;48.040;-1.594;2022-09-09T10:48:30;100868.50;;;20.47;82.95
46211;BME280;52144;48.040;-1.594;2022-09-09T10:51:13;100869.25;;;20.91;82.39
46211;BME280;52144;48.040;-1.594;2022-09-09T10:53:52;100865.84;;;20.35;85.06
46211;BME280;52144;48.040;-1.594;2022-09-09T10:56:23;100881.50;;;20.64;85.60
46211;BME280;52144;48.040;-1.594;2022-09-09T10:58:56;100872.69;;;21.23;83.92
46211;BME280;52144;48.040;-1.594;2022-09-09T11:01:33;100880.28;;;20.99;83.44
46211;BME280;52144;48.040;-1.594;2022-09-09T11:04:05;100870.34;;;21.09;83.95
46211;BME280;52144;48.040;-1.594;2022-09-09T11:06:41;100874.72;;;20.79;84.49
46211;BME280;52144;48.040;-1.594;2022-09-09T11:09:16;100883.13;;;20.97;83.65
46211;BME280;52144;48.040;-1.594;2022-09-09T11:11:49;100883.13;;;20.97;83.77
46211;BME280;52144;48.040;-1.594;2022-09-09T11:14:26;100871.50;;;21.16;82.25
46211;BME280;52144;48.040;-1.594;2022-09-09T11:17:09;100878.03;;;20.83;84.19
46211;BME280;52144;48.040;-1.594;2022-09-09T11:19:39;100879.78;;;21.15;83.52
46211;BME280;52144;48.040;-1.594;2022-09-09T11:22:16;100885.69;;;22.11;80.76
46211;BME280;52144;48.040;-1.594;2022-09-09T11:24:49;100883.00;;;22.40;79.78
46211;BME280;52144;48.040;-1.594;2022-09-09T11:27:21;100882.41;;;22.36;78.43
46211;BME280;52144;48.040;-1.594;2022-09-09T11:30:05;100876.56;;;22.51;78.21
46211;BME280;52144;48.040;-1.594;2022-09-09T11:33:00;100864.63;;;22.91;75.20
46211;BME280;52144;48.040;-1.594;2022-09-09T11:35:40;100860.34;;;22.98;75.37
46211;BME280;52144;48.040;-1.594;2022-09-09T11:38:18;100868.06;;;23.12;74.13
46211;BME280;52144;48.040;-1.594;2022-09-09T11:40:54;100865.50;;;22.81;75.97
46211;BME280;52144;48.040;-1.594;2022-09-09T11:43:28;100866.53;;;22.71;76.52
46211;BME280;52144;48.040;-1.594;2022-09-09T11:45:59;100878.41;;;22.21;75.77
46211;BME280;52144;48.040;-1.594;2022-09-09T11:48:34;100869.38;;;21.91;77.76
46211;BME280;52144;48.040;-1.594;2022-09-09T11:51:05;100863.59;;;22.25;76.62
46211;BME280;52144;48.040;-1.594;2022-09-09T11:53:50;100864.19;;;21.69;79.00
46211;BME280;52144;48.040;-1.594;2022-09-09T11:56:27;100871.25;;;21.19;84.15
46211;BME280;52144;48.040;-1.594;2022-09-09T11:58:59;100876.47;;;20.48;93.37
46211;BME280;52144;48.040;-1.594;2022-09-09T12:01:34;100885.69;;;20.99;96.27
46211;BME280;52144;48.040;-1.594;2022-09-09T12:04:18;100883.25;;;21.27;96.44
46211;BME280;52144;48.040;-1.594;2022-09-09T12:06:52;100888.78;;;20.94;95.72
46211;BME280;52144;48.040;-1.594;2022-09-09T12:09:27;100886.63;;;20.67;98.32
46211;BME280;52144;48.040;-1.594;2022-09-09T12:12:21;100880.03;;;20.49;96.28
46211;BME280;52144;48.040;-1.594;2022-09-09T12:15:02;100892.44;;;20.62;98.41
46211;BME280;52144;48.040;-1.594;2022-09-09T12:17:31;100878.28;;;20.59;96.63
46211;BME280;52144;48.040;-1.594;2022-09-09T12:20:13;100884.97;;;20.97;98.88
46211;BME280;52144;48.040;-1.594;2022-09-09T12:22:50;100877.47;;;20.47;100.00
46211;BME280;52144;48.040;-1.594;2022-09-09T12:25:28;100877.22;;;20.50;99.12
46211;BME280;52144;48.040;-1.594;2022-09-09T12:28:04;100875.63;;;21.11;100.00
46211;BME280;52144;48.040;-1.594;2022-09-09T12:30:39;100871.84;;;21.54;93.57
46211;BME280;52144;48.040;-1.594;2022-09-09T12:33:12;100877.09;;;22.15;93.49
46211;BME280;52144;48.040;-1.594;2022-09-09T12:35:44;100873.13;;;22.68;90.88
46211;BME280;52144;48.040;-1.594;2022-09-09T12:38:21;100868.38;;;22.80;88.08
46211;BME280;52144;48.040;-1.594;2022-09-09T12:40:54;100872.69;;;22.63;88.92
46211;BME280;52144;48.040;-1.594;2022-09-09T12:43:24;100865.22;;;22.84;84.88
46211;BME280;52144;48.040;-1.594;2022-09-09T12:45:56;100867.09;;;22.74;89.58
46211;BME280;52144;48.040;-1.594;2022-09-09T12:48:36;100866.47;;;23.47;84.49
46211;BME280;52144;48.040;-1.594;2022-09-09T12:51:18;100866.22;;;22.83;85.55
46211;BME280;52144;48.040;-1.594;2022-09-09T12:53:48;100866.91;;;22.86;85.53
46211;BME280;52144;48.040;-1.594;2022-09-09T12:56:21;100861.09;;;22.80;84.29
46211;BME280;52144;48.040;-1.594;2022-09-09T12:58:51;100867.75;;;22.96;83.47
46211;BME280;52144;48.040;-1.594;2022-09-09T13:01:22;100874.31;;;23.50;83.60
46211;BME280;52144;48.040;-1.594;2022-09-09T13:03:50;100876.28;;;22.44;82.77
46211;BME280;52144;48.040;-1.594;2022-09-09T13:06:22;100869.28;;;22.32;82.06
46211;BME280;52144;48.040;-1.594;2022-09-09T13:08:57;100867.38;;;22.71;80.19
46211;BME280;52144;48.040;-1.594;2022-09-09T13:11:28;100861.91;;;23.38;75.92